Ceres, Virginia
Current Conditions -  °F | °C
As of 9:55 AM on Wednesday 22 Oct 2014 (Local Time) from KMKJ Reporting Station
Broken Clouds Broken Clouds  
Wind Chill: 39°   Ceiling: 1900
Heat Index: 45°   Visibility: 10mi
Dew Point: 38°   Wind: 10mph
Humidity: 77%   Direction: 310°NW
Pressure: 30.16"   Gusts: 20mph
Location:  37.02°N, 81.34°W
Report Text: KMKJ 221355Z AUTO 31009G17KT 10SM BKN019 BKN024 BKN029 07/03 A3016 RMK AO2 T00700032
Loading
Personal Weather Stations






























Interactive Weather Map
Tropical Storm Tracking
New forecast layout! Learn more

10-Day Weather Forecast

Advertisements
Track Severe Weather on mobile